sensor_id;sensor_type;location;lat;lon;timestamp;temperature;humidity
9450;DHT22;4763;48.370;10.874;2022-08-21T00:00:59;16.20;99.90
9450;DHT22;4763;48.370;10.874;2022-08-21T00:03:27;16.20;99.90
9450;DHT22;4763;48.370;10.874;2022-08-21T00:05:54;16.20;99.90
9450;DHT22;4763;48.370;10.874;2022-08-21T00:08:21;16.30;99.90
9450;DHT22;4763;48.370;10.874;2022-08-21T00:10:50;16.30;99.90
9450;DHT22;4763;48.370;10.874;2022-08-21T00:13:17;16.30;99.90
9450;DHT22;4763;48.370;10.874;2022-08-21T00:15:45;16.50;99.90
9450;DHT22;4763;48.370;10.874;2022-08-21T00:18:13;16.30;99.90
9450;DHT22;4763;48.370;10.874;2022-08-21T00:20:42;16.30;99.90
9450;DHT22;4763;48.370;10.874;2022-08-21T00:23:10;16.30;99.90
9450;DHT22;4763;48.370;10.874;2022-08-21T00:25:37;16.30;99.90
9450;DHT22;4763;48.370;10.874;2022-08-21T00:28:05;16.30;99.90
9450;DHT22;4763;48.370;10.874;2022-08-21T00:30:34;16.40;99.90
9450;DHT22;4763;48.370;10.874;2022-08-21T00:33:01;16.30;99.90
9450;DHT22;4763;48.370;10.874;2022-08-21T00:35:31;16.20;99.90
9450;DHT22;4763;48.370;10.874;2022-08-21T00:37:59;16.30;99.90
9450;DHT22;4763;48.370;10.874;2022-08-21T00:40:31;16.20;99.90
9450;DHT22;4763;48.370;10.874;2022-08-21T00:43:00;16.20;99.90
9450;DHT22;4763;48.370;10.874;2022-08-21T00:45:29;16.20;99.90
9450;DHT22;4763;48.370;10.874;2022-08-21T00:47:57;16.10;99.90
9450;DHT22;4763;48.370;10.874;2022-08-21T00:50:27;16.20;99.90
9450;DHT22;4763;48.370;10.874;2022-08-21T00:52:55;16.20;99.90
9450;DHT22;4763;48.370;10.874;2022-08-21T00:55:23;16.10;99.90
9450;DHT22;4763;48.370;10.874;2022-08-21T01:01:14;16.00;99.90
9450;DHT22;4763;48.370;10.874;2022-08-21T01:03:41;16.00;99.90
9450;DHT22;4763;48.370;10.874;2022-08-21T01:06:08;16.00;99.90
9450;DHT22;4763;48.370;10.874;2022-08-21T01:08:35;16.00;99.90
9450;DHT22;4763;48.370;10.874;2022-08-21T01:11:03;15.90;99.90
9450;DHT22;4763;48.370;10.874;2022-08-21T01:13:32;15.90;99.90
9450;DHT22;4763;48.370;10.874;2022-08-21T01:16:03;15.80;99.90
9450;DHT22;4763;48.370;10.874;2022-08-21T01:18:32;15.90;99.90
9450;DHT22;4763;48.370;10.874;2022-08-21T01:21:03;15.80;99.90
9450;DHT22;4763;48.370;10.874;2022-08-21T01:23:31;15.80;99.90
9450;DHT22;4763;48.370;10.874;2022-08-21T01:25:58;15.80;99.90
9450;DHT22;4763;48.370;10.874;2022-08-21T01:28:26;15.70;99.90
9450;DHT22;4763;48.370;10.874;2022-08-21T01:30:56;15.80;99.90
9450;DHT22;4763;48.370;10.874;2022-08-21T01:33:25;15.80;99.90
9450;DHT22;4763;48.370;10.874;2022-08-21T01:35:52;15.70;99.90
9450;DHT22;4763;48.370;10.874;2022-08-21T01:38:20;15.70;99.90
9450;DHT22;4763;48.370;10.874;2022-08-21T01:40:47;15.70;99.90
9450;DHT22;4763;48.370;10.874;2022-08-21T01:43:14;15.80;99.90
9450;DHT22;4763;48.370;10.874;2022-08-21T01:45:40;15.70;99.90
9450;DHT22;4763;48.370;10.874;2022-08-21T01:48:07;15.70;99.90
9450;DHT22;4763;48.370;10.874;2022-08-21T01:50:35;15.70;99.90
9450;DHT22;4763;48.370;10.874;2022-08-21T01:53:01;15.60;99.90
9450;DHT22;4763;48.370;10.874;2022-08-21T01:55:30;15.60;99.90
9450;DHT22;4763;48.370;10.874;2022-08-21T01:57:58;15.60;99.90
9450;DHT22;4763;48.370;10.874;2022-08-21T02:00:25;15.50;99.90
9450;DHT22;4763;48.370;10.874;2022-08-21T02:02:52;15.50;99.90
9450;DHT22;4763;48.370;10.874;2022-08-21T02:05:19;15.50;99.90
9450;DHT22;4763;48.370;10.874;2022-08-21T02:07:49;15.50;99.90
9450;DHT22;4763;48.370;10.874;2022-08-21T02:10:21;15.40;99.90
9450;DHT22;4763;48.370;10.874;2022-08-21T02:12:50;15.40;99.90
9450;DHT22;4763;48.370;10.874;2022-08-21T02:15:17;15.40;99.90
9450;DHT22;4763;48.370;10.874;2022-08-21T02:17:48;15.30;99.90
9450;DHT22;4763;48.370;10.874;2022-08-21T02:20:17;15.30;99.90
9450;DHT22;4763;48.370;10.874;2022-08-21T02:22:45;15.30;99.90
9450;DHT22;4763;48.370;10.874;2022-08-21T02:25:12;15.40;99.90
9450;DHT22;4763;48.370;10.874;2022-08-21T02:27:40;15.30;99.90
9450;DHT22;4763;48.370;10.874;2022-08-21T02:30:11;15.30;99.90
9450;DHT22;4763;48.370;10.874;2022-08-21T02:32:38;15.30;99.90
9450;DHT22;4763;48.370;10.874;2022-08-21T02:35:06;15.20;99.90
9450;DHT22;4763;48.370;10.874;2022-08-21T02:37:33;15.20;99.90
9450;DHT22;4763;48.370;10.874;2022-08-21T02:40:00;15.20;99.90
9450;DHT22;4763;48.370;10.874;2022-08-21T02:42:27;15.20;99.90
9450;DHT22;4763;48.370;10.874;2022-08-21T02:44:55;15.20;99.90
9450;DHT22;4763;48.370;10.874;2022-08-21T02:47:23;15.20;99.90
9450;DHT22;4763;48.370;10.874;2022-08-21T02:49:52;15.20;99.90
9450;DHT22;4763;48.370;10.874;2022-08-21T02:52:18;15.20;99.90
9450;DHT22;4763;48.370;10.874;2022-08-21T02:54:47;15.20;99.90
9450;DHT22;4763;48.370;10.874;2022-08-21T02:57:14;15.20;99.90
9450;DHT22;4763;48.370;10.874;2022-08-21T02:59:41;15.20;99.90
9450;DHT22;4763;48.370;10.874;2022-08-21T03:02:08;15.30;99.90
9450;DHT22;4763;48.370;10.874;2022-08-21T03:04:38;15.30;99.90
9450;DHT22;4763;48.370;10.874;2022-08-21T03:07:05;15.30;99.90
9450;DHT22;4763;48.370;10.874;2022-08-21T03:09:32;15.30;99.90
9450;DHT22;4763;48.370;10.874;2022-08-21T03:11:59;15.30;99.90
9450;DHT22;4763;48.370;10.874;2022-08-21T03:14:26;15.30;99.90
9450;DHT22;4763;48.370;10.874;2022-08-21T03:16:52;15.30;99.90
9450;DHT22;4763;48.370;10.874;2022-08-21T03:19:20;15.30;99.90
9450;DHT22;4763;48.370;10.874;2022-08-21T03:21:48;15.30;99.90
9450;DHT22;4763;48.370;10.874;2022-08-21T03:24:15;15.30;99.90
9450;DHT22;4763;48.370;10.874;2022-08-21T03:26:41;15.20;99.90
9450;DHT22;4763;48.370;10.874;2022-08-21T03:29:08;15.20;99.90
9450;DHT22;4763;48.370;10.874;2022-08-21T03:31:36;15.20;99.90
9450;DHT22;4763;48.370;10.874;2022-08-21T03:34:02;15.10;99.90
9450;DHT22;4763;48.370;10.874;2022-08-21T03:36:29;15.10;99.90
9450;DHT22;4763;48.370;10.874;2022-08-21T03:38:58;15.10;99.90
9450;DHT22;4763;48.370;10.874;2022-08-21T03:41:25;15.10;99.90
9450;DHT22;4763;48.370;10.874;2022-08-21T03:43:51;15.10;99.90
9450;DHT22;4763;48.370;10.874;2022-08-21T03:46:19;15.10;99.90
9450;DHT22;4763;48.370;10.874;2022-08-21T03:48:46;15.10;99.90
9450;DHT22;4763;48.370;10.874;2022-08-21T03:51:14;15.20;99.90
9450;DHT22;4763;48.370;10.874;2022-08-21T03:53:41;15.10;99.90
9450;DHT22;4763;48.370;10.874;2022-08-21T03:56:09;15.10;99.90
9450;DHT22;4763;48.370;10.874;2022-08-21T03:58:36;15.20;99.90
9450;DHT22;4763;48.370;10.874;2022-08-21T04:01:04;15.10;99.90
9450;DHT22;4763;48.370;10.874;2022-08-21T04:03:34;15.10;99.90
9450;DHT22;4763;48.370;10.874;2022-08-21T04:06:04;15.10;99.90
9450;DHT22;4763;48.370;10.874;2022-08-21T04:08:31;15.10;99.90
9450;DHT22;4763;48.370;10.874;2022-08-21T04:10:58;15.10;99.90
9450;DHT22;4763;48.370;10.874;2022-08-21T04:13:26;15.00;99.90
9450;DHT22;4763;48.370;10.874;2022-08-21T04:15:55;15.00;99.90
9450;DHT22;4763;48.370;10.874;2022-08-21T04:18:23;15.00;99.90
9450;DHT22;4763;48.370;10.874;2022-08-21T04:20:51;14.90;99.90
9450;DHT22;4763;48.370;10.874;2022-08-21T04:23:20;14.90;99.90
9450;DHT22;4763;48.370;10.874;2022-08-21T04:25:47;14.90;99.90
9450;DHT22;4763;48.370;10.874;2022-08-21T04:28:14;14.80;99.90
9450;DHT22;4763;48.370;10.874;2022-08-21T04:34:05;14.70;99.90
9450;DHT22;4763;48.370;10.874;2022-08-21T04:36:32;14.70;99.90
9450;DHT22;4763;48.370;10.874;2022-08-21T04:39:06;14.60;99.90
9450;DHT22;4763;48.370;10.874;2022-08-21T04:41:32;14.70;99.90
9450;DHT22;4763;48.370;10.874;2022-08-21T04:44:00;14.80;99.90
9450;DHT22;4763;48.370;10.874;2022-08-21T04:46:26;14.80;99.90
9450;DHT22;4763;48.370;10.874;2022-08-21T04:48:53;14.80;99.90
9450;DHT22;4763;48.370;10.874;2022-08-21T04:51:25;14.80;99.90
9450;DHT22;4763;48.370;10.874;2022-08-21T04:53:59;14.80;99.90
9450;DHT22;4763;48.370;10.874;2022-08-21T04:56:31;14.80;99.90
9450;DHT22;4763;48.370;10.874;2022-08-21T04:59:01;14.70;99.90
9450;DHT22;4763;48.370;10.874;2022-08-21T05:01:31;14.70;99.90
9450;DHT22;4763;48.370;10.874;2022-08-21T05:04:01;14.70;99.90
9450;DHT22;4763;48.370;10.874;2022-08-21T05:06:34;14.70;99.90
9450;DHT22;4763;48.370;10.874;2022-08-21T05:09:04;14.70;99.90
9450;DHT22;4763;48.370;10.874;2022-08-21T05:11:32;14.70;99.90
9450;DHT22;4763;48.370;10.874;2022-08-21T05:14:00;14.70;99.90
9450;DHT22;4763;48.370;10.874;2022-08-21T05:16:27;14.70;99.90
9450;DHT22;4763;48.370;10.874;2022-08-21T05:18:54;14.80;99.90
9450;DHT22;4763;48.370;10.874;2022-08-21T05:21:21;14.80;99.90
9450;DHT22;4763;48.370;10.874;2022-08-21T05:23:49;14.80;99.90
9450;DHT22;4763;48.370;10.874;2022-08-21T05:26:15;14.80;99.90
9450;DHT22;4763;48.370;10.874;2022-08-21T05:28:43;14.90;99.90
9450;DHT22;4763;48.370;10.874;2022-08-21T05:31:10;15.00;99.90
9450;DHT22;4763;48.370;10.874;2022-08-21T05:33:37;15.00;99.90
9450;DHT22;4763;48.370;10.874;2022-08-21T05:36:04;15.00;99.90
9450;DHT22;4763;48.370;10.874;2022-08-21T05:38:31;15.00;99.90
9450;DHT22;4763;48.370;10.874;2022-08-21T05:40:59;15.10;99.90
9450;DHT22;4763;48.370;10.874;2022-08-21T05:43:26;15.20;99.90
9450;DHT22;4763;48.370;10.874;2022-08-21T05:45:53;15.20;99.90
9450;DHT22;4763;48.370;10.874;2022-08-21T05:48:22;15.30;99.90
9450;DHT22;4763;48.370;10.874;2022-08-21T05:50:51;15.30;99.90
9450;DHT22;4763;48.370;10.874;2022-08-21T05:53:20;15.30;99.90
9450;DHT22;4763;48.370;10.874;2022-08-21T05:55:47;15.30;99.90
9450;DHT22;4763;48.370;10.874;2022-08-21T05:58:17;15.30;99.90
9450;DHT22;4763;48.370;10.874;2022-08-21T06:00:45;15.40;99.90
9450;DHT22;4763;48.370;10.874;2022-08-21T06:03:13;15.40;99.90
9450;DHT22;4763;48.370;10.874;2022-08-21T06:05:40;15.40;99.90
9450;DHT22;4763;48.370;10.874;2022-08-21T06:08:07;15.50;99.90
9450;DHT22;4763;48.370;10.874;2022-08-21T06:10:34;15.50;99.90
9450;DHT22;4763;48.370;10.874;2022-08-21T06:13:01;15.60;99.90
9450;DHT22;4763;48.370;10.874;2022-08-21T06:15:29;15.70;99.90
9450;DHT22;4763;48.370;10.874;2022-08-21T06:17:56;15.70;99.90
9450;DHT22;4763;48.370;10.874;2022-08-21T06:20:23;15.80;99.90
9450;DHT22;4763;48.370;10.874;2022-08-21T06:22:50;15.90;99.90
9450;DHT22;4763;48.370;10.874;2022-08-21T06:25:18;16.00;99.90
9450;DHT22;4763;48.370;10.874;2022-08-21T06:27:45;16.10;99.90
9450;DHT22;4763;48.370;10.874;2022-08-21T06:30:13;16.10;99.90
9450;DHT22;4763;48.370;10.874;2022-08-21T06:32:42;16.20;99.90
9450;DHT22;4763;48.370;10.874;2022-08-21T06:35:09;16.20;99.90
9450;DHT22;4763;48.370;10.874;2022-08-21T06:37:37;16.30;99.90
9450;DHT22;4763;48.370;10.874;2022-08-21T06:40:05;16.40;99.90
9450;DHT22;4763;48.370;10.874;2022-08-21T06:42:32;16.40;99.90
9450;DHT22;4763;48.370;10.874;2022-08-21T06:44:59;16.50;99.90
9450;DHT22;4763;48.370;10.874;2022-08-21T06:47:28;16.50;99.90
9450;DHT22;4763;48.370;10.874;2022-08-21T06:49:56;16.70;99.90
9450;DHT22;4763;48.370;10.874;2022-08-21T06:52:23;16.70;99.90
9450;DHT22;4763;48.370;10.874;2022-08-21T06:54:50;16.80;99.90
9450;DHT22;4763;48.370;10.874;2022-08-21T06:57:17;16.80;99.90
9450;DHT22;4763;48.370;10.874;2022-08-21T06:59:44;16.90;99.90
9450;DHT22;4763;48.370;10.874;2022-08-21T07:02:11;17.00;99.90
9450;DHT22;4763;48.370;10.874;2022-08-21T07:04:38;17.00;99.90
9450;DHT22;4763;48.370;10.874;2022-08-21T07:07:06;17.20;99.90
9450;DHT22;4763;48.370;10.874;2022-08-21T07:09:33;17.20;99.90
9450;DHT22;4763;48.370;10.874;2022-08-21T07:12:00;17.20;99.90
9450;DHT22;4763;48.370;10.874;2022-08-21T07:14:28;17.30;99.90
9450;DHT22;4763;48.370;10.874;2022-08-21T07:16:54;17.50;99.90
9450;DHT22;4763;48.370;10.874;2022-08-21T07:19:21;17.50;99.90
9450;DHT22;4763;48.370;10.874;2022-08-21T07:21:48;17.60;99.90
9450;DHT22;4763;48.370;10.874;2022-08-21T07:24:24;17.70;99.90
9450;DHT22;4763;48.370;10.874;2022-08-21T07:26:51;17.70;99.90
9450;DHT22;4763;48.370;10.874;2022-08-21T07:29:18;17.80;99.90
9450;DHT22;4763;48.370;10.874;2022-08-21T07:31:45;17.90;99.90
9450;DHT22;4763;48.370;10.874;2022-08-21T07:34:12;18.00;99.90
9450;DHT22;4763;48.370;10.874;2022-08-21T07:36:39;18.00;99.90
9450;DHT22;4763;48.370;10.874;2022-08-21T07:39:06;18.00;99.90
9450;DHT22;4763;48.370;10.874;2022-08-21T07:41:34;18.00;99.90
9450;DHT22;4763;48.370;10.874;2022-08-21T07:44:02;18.10;99.90
9450;DHT22;4763;48.370;10.874;2022-08-21T07:46:50;18.20;99.90
9450;DHT22;4763;48.370;10.874;2022-08-21T07:49:59;18.30;99.90
9450;DHT22;4763;48.370;10.874;2022-08-21T07:52:29;18.50;99.90
9450;DHT22;4763;48.370;10.874;2022-08-21T07:55:08;18.60;99.90
9450;DHT22;4763;48.370;10.874;2022-08-21T07:57:43;18.80;99.90
9450;DHT22;4763;48.370;10.874;2022-08-21T08:00:24;18.90;99.90
9450;DHT22;4763;48.370;10.874;2022-08-21T08:02:52;19.00;99.90
9450;DHT22;4763;48.370;10.874;2022-08-21T08:05:22;19.10;99.90
9450;DHT22;4763;48.370;10.874;2022-08-21T08:07:52;19.30;99.90
9450;DHT22;4763;48.370;10.874;2022-08-21T08:10:20;19.40;99.90
9450;DHT22;4763;48.370;10.874;2022-08-21T08:12:51;19.60;99.90
9450;DHT22;4763;48.370;10.874;2022-08-21T08:15:21;19.70;99.90
9450;DHT22;4763;48.370;10.874;2022-08-21T08:17:49;19.70;99.90
9450;DHT22;4763;48.370;10.874;2022-08-21T08:20:17;20.00;99.90
9450;DHT22;4763;48.370;10.874;2022-08-21T08:22:45;20.00;99.90
9450;DHT22;4763;48.370;10.874;2022-08-21T08:25:14;20.20;99.90
9450;DHT22;4763;48.370;10.874;2022-08-21T08:27:41;20.30;99.90
9450;DHT22;4763;48.370;10.874;2022-08-21T08:30:12;20.50;99.90
9450;DHT22;4763;48.370;10.874;2022-08-21T08:32:39;20.70;99.90
9450;DHT22;4763;48.370;10.874;2022-08-21T08:35:07;20.90;99.90
9450;DHT22;4763;48.370;10.874;2022-08-21T08:37:35;21.10;99.90
9450;DHT22;4763;48.370;10.874;2022-08-21T08:40:04;21.20;99.90
9450;DHT22;4763;48.370;10.874;2022-08-21T08:42:32;21.40;99.90
9450;DHT22;4763;48.370;10.874;2022-08-21T08:45:02;21.50;99.90
9450;DHT22;4763;48.370;10.874;2022-08-21T08:47:32;21.50;99.90
9450;DHT22;4763;48.370;10.874;2022-08-21T08:50:04;21.70;99.90
9450;DHT22;4763;48.370;10.874;2022-08-21T08:52:36;21.70;99.90
9450;DHT22;4763;48.370;10.874;2022-08-21T08:55:05;21.90;99.90
9450;DHT22;4763;48.370;10.874;2022-08-21T08:57:33;22.00;99.90
9450;DHT22;4763;48.370;10.874;2022-08-21T09:00:05;22.00;99.90
9450;DHT22;4763;48.370;10.874;2022-08-21T09:02:42;22.20;99.90
9450;DHT22;4763;48.370;10.874;2022-08-21T09:05:18;22.50;99.90
9450;DHT22;4763;48.370;10.874;2022-08-21T09:07:55;22.70;99.90
9450;DHT22;4763;48.370;10.874;2022-08-21T09:10:34;22.90;99.90
9450;DHT22;4763;48.370;10.874;2022-08-21T09:13:08;22.90;99.90
9450;DHT22;4763;48.370;10.874;2022-08-21T09:15:49;22.90;99.90
9450;DHT22;4763;48.370;10.874;2022-08-21T09:18:28;22.90;99.90
9450;DHT22;4763;48.370;10.874;2022-08-21T09:21:06;23.20;99.90
9450;DHT22;4763;48.370;10.874;2022-08-21T09:23:41;22.90;99.90
9450;DHT22;4763;48.370;10.874;2022-08-21T09:26:13;23.00;99.90
9450;DHT22;4763;48.370;10.874;2022-08-21T09:28:41;23.20;99.90
9450;DHT22;4763;48.370;10.874;2022-08-21T09:31:21;23.40;99.90
9450;DHT22;4763;48.370;10.874;2022-08-21T09:33:57;23.60;99.90
9450;DHT22;4763;48.370;10.874;2022-08-21T09:36:30;23.70;99.90
9450;DHT22;4763;48.370;10.874;2022-08-21T09:38:57;23.80;99.90
9450;DHT22;4763;48.370;10.874;2022-08-21T09:41:32;23.70;99.90
9450;DHT22;4763;48.370;10.874;2022-08-21T09:43:59;23.70;99.90
9450;DHT22;4763;48.370;10.874;2022-08-21T09:46:27;23.80;99.90
9450;DHT22;4763;48.370;10.874;2022-08-21T09:48:58;23.90;99.90
9450;DHT22;4763;48.370;10.874;2022-08-21T09:51:27;24.00;99.90
9450;DHT22;4763;48.370;10.874;2022-08-21T09:53:57;24.30;99.90
9450;DHT22;4763;48.370;10.874;2022-08-21T09:56:29;24.40;99.90
9450;DHT22;4763;48.370;10.874;2022-08-21T09:59:18;24.60;99.90
9450;DHT22;4763;48.370;10.874;2022-08-21T10:01:48;24.80;99.90
9450;DHT22;4763;48.370;10.874;2022-08-21T10:04:20;24.90;99.90
9450;DHT22;4763;48.370;10.874;2022-08-21T10:06:47;24.80;99.90
9450;DHT22;4763;48.370;10.874;2022-08-21T10:09:17;24.80;99.90
9450;DHT22;4763;48.370;10.874;2022-08-21T10:11:52;25.10;99.90
9450;DHT22;4763;48.370;10.874;2022-08-21T10:14:37;25.00;99.90
9450;DHT22;4763;48.370;10.874;2022-08-21T10:17:15;25.20;99.90
9450;DHT22;4763;48.370;10.874;2022-08-21T10:19:51;25.40;99.90
9450;DHT22;4763;48.370;10.874;2022-08-21T10:22:31;25.30;99.90
9450;DHT22;4763;48.370;10.874;2022-08-21T10:25:06;25.20;99.90
9450;DHT22;4763;48.370;10.874;2022-08-21T10:27:39;25.00;99.90
9450;DHT22;4763;48.370;10.874;2022-08-21T10:30:11;25.30;99.90
9450;DHT22;4763;48.370;10.874;2022-08-21T10:33:02;25.60;99.90
9450;DHT22;4763;48.370;10.874;2022-08-21T10:35:36;25.60;99.90
9450;DHT22;4763;48.370;10.874;2022-08-21T10:41:17;25.90;99.90
9450;DHT22;4763;48.370;10.874;2022-08-21T10:43:54;25.90;99.90
9450;DHT22;4763;48.370;10.874;2022-08-21T10:46:35;26.10;99.90
9450;DHT22;4763;48.370;10.874;2022-08-21T10:49:12;26.10;99.90
9450;DHT22;4763;48.370;10.874;2022-08-21T10:51:47;26.30;99.90
9450;DHT22;4763;48.370;10.874;2022-08-21T10:54:21;26.40;99.90
9450;DHT22;4763;48.370;10.874;2022-08-21T10:56:58;26.20;99.90
9450;DHT22;4763;48.370;10.874;2022-08-21T10:59:33;26.20;99.90
9450;DHT22;4763;48.370;10.874;2022-08-21T11:02:13;26.30;99.90
9450;DHT22;4763;48.370;10.874;2022-08-21T11:04:49;26.70;99.90
9450;DHT22;4763;48.370;10.874;2022-08-21T11:07:19;26.70;99.90
9450;DHT22;4763;48.370;10.874;2022-08-21T11:09:48;26.30;99.90
9450;DHT22;4763;48.370;10.874;2022-08-21T11:12:20;26.20;99.90
9450;DHT22;4763;48.370;10.874;2022-08-21T11:14:54;26.10;99.90
9450;DHT22;4763;48.370;10.874;2022-08-21T11:17:30;26.40;99.90
9450;DHT22;4763;48.370;10.874;2022-08-21T11:20:04;26.50;99.90
9450;DHT22;4763;48.370;10.874;2022-08-21T11:22:40;26.00;99.90
9450;DHT22;4763;48.370;10.874;2022-08-21T11:25:11;26.10;99.90
9450;DHT22;4763;48.370;10.874;2022-08-21T11:27:43;25.80;99.90
9450;DHT22;4763;48.370;10.874;2022-08-21T11:30:12;25.80;99.90
9450;DHT22;4763;48.370;10.874;2022-08-21T11:33:03;26.00;99.90
9450;DHT22;4763;48.370;10.874;2022-08-21T11:35:39;26.20;99.90
9450;DHT22;4763;48.370;10.874;2022-08-21T11:41:19;26.80;99.90
9450;DHT22;4763;48.370;10.874;2022-08-21T11:43:55;27.10;99.90
9450;DHT22;4763;48.370;10.874;2022-08-21T11:46:46;27.20;99.90
9450;DHT22;4763;48.370;10.874;2022-08-21T11:49:33;27.20;99.90
9450;DHT22;4763;48.370;10.874;2022-08-21T11:52:11;27.40;99.90
9450;DHT22;4763;48.370;10.874;2022-08-21T11:54:46;27.40;99.90
9450;DHT22;4763;48.370;10.874;2022-08-21T11:57:20;27.50;99.90
9450;DHT22;4763;48.370;10.874;2022-08-21T11:59:51;27.50;99.90
9450;DHT22;4763;48.370;10.874;2022-08-21T12:02:22;27.20;99.90
9450;DHT22;4763;48.370;10.874;2022-08-21T12:04:53;27.10;99.90
9450;DHT22;4763;48.370;10.874;2022-08-21T12:07:32;27.60;99.90
9450;DHT22;4763;48.370;10.874;2022-08-21T12:10:00;27.30;99.90
9450;DHT22;4763;48.370;10.874;2022-08-21T12:12:32;27.80;99.90
9450;DHT22;4763;48.370;10.874;2022-08-21T12:15:17;27.90;99.90
9450;DHT22;4763;48.370;10.874;2022-08-21T12:17:57;28.10;99.90
9450;DHT22;4763;48.370;10.874;2022-08-21T12:20:43;28.00;99.90
9450;DHT22;4763;48.370;10.874;2022-08-21T12:23:26;28.10;99.90
9450;DHT22;4763;48.370;10.874;2022-08-21T12:26:09;28.10;99.90
9450;DHT22;4763;48.370;10.874;2022-08-21T12:28:37;28.10;99.90
9450;DHT22;4763;48.370;10.874;2022-08-21T12:31:21;27.90;99.90
9450;DHT22;4763;48.370;10.874;2022-08-21T12:33:54;28.20;99.90
9450;DHT22;4763;48.370;10.874;2022-08-21T12:36:25;28.40;99.90
9450;DHT22;4763;48.370;10.874;2022-08-21T12:38:56;28.80;99.90
9450;DHT22;4763;48.370;10.874;2022-08-21T12:41:30;28.80;99.90
9450;DHT22;4763;48.370;10.874;2022-08-21T12:44:02;28.80;99.90
9450;DHT22;4763;48.370;10.874;2022-08-21T12:46:35;28.90;99.90
9450;DHT22;4763;48.370;10.874;2022-08-21T12:49:08;28.90;99.90
9450;DHT22;4763;48.370;10.874;2022-08-21T12:51:48;28.70;99.90
9450;DHT22;4763;48.370;10.874;2022-08-21T12:54:24;28.60;98.90
9450;DHT22;4763;48.370;10.874;2022-08-21T12:57:01;28.50;99.70
9450;DHT22;4763;48.370;10.874;2022-08-21T12:59:29;28.60;98.20
9450;DHT22;4763;48.370;10.874;2022-08-21T13:01:57;28.60;96.80
9450;DHT22;4763;48.370;10.874;2022-08-21T13:04:33;28.40;99.80
9450;DHT22;4763;48.370;10.874;2022-08-21T13:07:00;28.60;99.90
9450;DHT22;4763;48.370;10.874;2022-08-21T13:09:29;28.70;99.30
9450;DHT22;4763;48.370;10.874;2022-08-21T13:11:58;29.10;99.90
9450;DHT22;4763;48.370;10.874;2022-08-21T13:14:30;29.50;97.10
9450;DHT22;4763;48.370;10.874;2022-08-21T13:16:59;29.50;99.60
9450;DHT22;4763;48.370;10.874;2022-08-21T13:19:26;29.50;99.90
9450;DHT22;4763;48.370;10.874;2022-08-21T13:21:55;29.50;95.30
9450;DHT22;4763;48.370;10.874;2022-08-21T13:24:24;29.40;98.20
9450;DHT22;4763;48.370;10.874;2022-08-21T13:26:52;29.40;93.20
9450;DHT22;4763;48.370;10.874;2022-08-21T13:29:22;29.30;98.00
9450;DHT22;4763;48.370;10.874;2022-08-21T13:31:52;29.60;99.90
9450;DHT22;4763;48.370;10.874;2022-08-21T13:34:20;29.90;97.30
9450;DHT22;4763;48.370;10.874;2022-08-21T13:36:51;29.80;98.00
9450;DHT22;4763;48.370;10.874;2022-08-21T13:39:20;29.70;94.70
9450;DHT22;4763;48.370;10.874;2022-08-21T13:41:49;29.30;98.70
9450;DHT22;4763;48.370;10.874;2022-08-21T13:44:21;29.50;98.60
9450;DHT22;4763;48.370;10.874;2022-08-21T13:46:52;29.60;96.80
9450;DHT22;4763;48.370;10.874;2022-08-21T13:49:25;29.90;97.10
9450;DHT22;4763;48.370;10.874;2022-08-21T13:51:53;30.00;99.20
9450;DHT22;4763;48.370;10.874;2022-08-21T13:54:24;29.90;95.10
9450;DHT22;4763;48.370;10.874;2022-08-21T13:56:53;30.00;97.50
9450;DHT22;4763;48.370;10.874;2022-08-21T13:59:27;30.30;93.80
9450;DHT22;4763;48.370;10.874;2022-08-21T14:01:56;30.10;95.40
9450;DHT22;4763;48.370;10.874;2022-08-21T14:04:31;30.20;94.30
9450;DHT22;4763;48.370;10.874;2022-08-21T14:07:00;30.20;93.80
9450;DHT22;4763;48.370;10.874;2022-08-21T14:09:31;30.50;99.00
9450;DHT22;4763;48.370;10.874;2022-08-21T14:12:00;30.30;92.80
9450;DHT22;4763;48.370;10.874;2022-08-21T14:14:31;30.20;93.30
9450;DHT22;4763;48.370;10.874;2022-08-21T14:17:01;30.40;93.60
9450;DHT22;4763;48.370;10.874;2022-08-21T14:19:37;30.20;95.30
9450;DHT22;4763;48.370;10.874;2022-08-21T14:22:23;30.20;96.80
9450;DHT22;4763;48.370;10.874;2022-08-21T14:24:59;30.50;95.00
9450;DHT22;4763;48.370;10.874;2022-08-21T14:27:29;30.70;95.60
9450;DHT22;4763;48.370;10.874;2022-08-21T14:29:59;30.80;96.40
9450;DHT22;4763;48.370;10.874;2022-08-21T14:32:28;30.80;97.00
9450;DHT22;4763;48.370;10.874;2022-08-21T14:34:57;30.80;94.40
9450;DHT22;4763;48.370;10.874;2022-08-21T14:37:24;30.80;96.10
9450;DHT22;4763;48.370;10.874;2022-08-21T14:39:52;30.90;92.50
9450;DHT22;4763;48.370;10.874;2022-08-21T14:42:19;30.90;93.40
9450;DHT22;4763;48.370;10.874;2022-08-21T14:44:46;30.60;95.40
9450;DHT22;4763;48.370;10.874;2022-08-21T14:47:14;30.90;95.50
9450;DHT22;4763;48.370;10.874;2022-08-21T14:49:41;30.70;94.90
9450;DHT22;4763;48.370;10.874;2022-08-21T14:52:08;30.50;94.30
9450;DHT22;4763;48.370;10.874;2022-08-21T14:54:35;30.20;93.90
9450;DHT22;4763;48.370;10.874;2022-08-21T14:57:04;30.10;97.10
9450;DHT22;4763;48.370;10.874;2022-08-21T14:59:32;30.30;95.00
9450;DHT22;4763;48.370;10.874;2022-08-21T15:01:59;30.50;95.40
9450;DHT22;4763;48.370;10.874;2022-08-21T15:04:28;30.50;96.60
9450;DHT22;4763;48.370;10.874;2022-08-21T15:06:55;30.50;94.80
9450;DHT22;4763;48.370;10.874;2022-08-21T15:09:22;30.30;94.50
9450;DHT22;4763;48.370;10.874;2022-08-21T15:11:49;29.90;95.50
9450;DHT22;4763;48.370;10.874;2022-08-21T15:14:20;29.80;93.90
9450;DHT22;4763;48.370;10.874;2022-08-21T15:16:49;29.70;98.10
9450;DHT22;4763;48.370;10.874;2022-08-21T15:19:16;29.20;97.40
9450;DHT22;4763;48.370;10.874;2022-08-21T15:21:45;28.70;95.90
9450;DHT22;4763;48.370;10.874;2022-08-21T15:24:12;28.50;96.50
9450;DHT22;4763;48.370;10.874;2022-08-21T15:26:38;28.80;99.70
9450;DHT22;4763;48.370;10.874;2022-08-21T15:29:07;29.20;98.60
9450;DHT22;4763;48.370;10.874;2022-08-21T15:31:34;29.40;96.00
9450;DHT22;4763;48.370;10.874;2022-08-21T15:34:01;29.70;95.70
9450;DHT22;4763;48.370;10.874;2022-08-21T15:36:28;29.70;95.60
9450;DHT22;4763;48.370;10.874;2022-08-21T15:38:57;29.80;96.00
9450;DHT22;4763;48.370;10.874;2022-08-21T15:41:23;29.90;96.00
9450;DHT22;4763;48.370;10.874;2022-08-21T15:43:52;29.90;95.90
9450;DHT22;4763;48.370;10.874;2022-08-21T15:46:19;30.10;95.50
9450;DHT22;4763;48.370;10.874;2022-08-21T15:48:47;30.20;94.60
9450;DHT22;4763;48.370;10.874;2022-08-21T15:51:15;30.10;94.70
9450;DHT22;4763;48.370;10.874;2022-08-21T15:53:42;29.90;94.60
9450;DHT22;4763;48.370;10.874;2022-08-21T15:56:17;29.70;95.20
9450;DHT22;4763;48.370;10.874;2022-08-21T15:58:46;29.70;93.60
9450;DHT22;4763;48.370;10.874;2022-08-21T16:01:13;29.60;95.70
9450;DHT22;4763;48.370;10.874;2022-08-21T16:03:41;29.40;94.00
9450;DHT22;4763;48.370;10.874;2022-08-21T16:06:09;29.20;95.40
9450;DHT22;4763;48.370;10.874;2022-08-21T16:08:36;29.10;94.30
9450;DHT22;4763;48.370;10.874;2022-08-21T16:11:03;28.50;95.90
9450;DHT22;4763;48.370;10.874;2022-08-21T16:13:35;28.30;94.20
9450;DHT22;4763;48.370;10.874;2022-08-21T16:16:03;27.60;95.30